Stewart, Minnesota
Current Conditions -  °F | °C
As of 10:33 PM on Thursday 20 Nov 2014 (Local Time) from KHCD Reporting Station
Clear Clear  
Wind Chill: -2°   Ceiling: Unl
Heat Index: -2°   Visibility: 10mi
Dew Point: -5°   Wind: 0mph
Humidity: 87%   Direction: NA
Pressure: 30.22"   Gusts: NA
Location:  44.72°N, 94.49°W
Report Text: KHCD 210433Z AUTO 00000KT 10SM CLR M19/M20 A3022 RMK AO2 T11871204
Loading
Personal Weather Stations






























Interactive Weather Map New forecast layout! Learn more

10-Day Weather Forecast

Advertisements
Track Severe Weather on mobile